Terminal Aerodrome Forecast
Issued by NWS Cleveland, OH

Home | Current Version | Previous Version | Graphics & Text | Print | Product List | Glossary On
Versions: 1 2 3 4 5 6 7 8 9 10 11 12 13
000
FTUS41 KCLE 181120
TAFYNG
TAF
KYNG 181120Z 1812/1912 21010KT P6SM SKC
     FM181600 21010G18KT P6SM SCT250
     FM182200 24008KT P6SM FEW250
     FM190800 26005KT 4SM BR SKC=

USA.gov is the U.S. government's official web portal to all federal, state and local government web resources and services.